Main page
METAR-TAF:

METAR-TAF

Airports :

Čáslav, Czech Republic

latitude: 49-56-23N, longitude: 15-22-55E, elevation: 242 m

Current weather observation

The report was made 23 minutes ago, at 03:00 UTC
Wind 3 kt from the South/Southeast
Temperature 20°C
Humidity 60%
Pressure 1016 hPa
Visibility 10 km or more
no clouds below 1500 m and no cumulonimbus

METAR: LKCV 200300Z 16003KT CAVOK 20/12 Q1016 NOSIG RMK BLU BLU

Time: 05:23 (03:23 UTC)

Forecast

The report was made 4 hours and 23 minutes ago, at 23:00 UTC
Forecast valid from 20 at 00 UTC to 21 at 00 UTC
Wind 2 kt from variable directions
Visibility 10 km or more
no clouds below 1500 m and no cumulonimbus
Temporary
from 20 at 13 UTC to 20 at 18 UTC
Wind 12 kt from the Northwest

TAF: LKCV 192300Z 2000/2100 VRB02KT CAVOK TEMPO 2013/2018 31012KT

Weather observations and forecasts of more than 4000 airports (METAR and TAF reports).

The available stations are represented by yellow and red dots on the map.

Hover mouse over dot to see the name of the station.

Then click to see weather observations and forecasts.

To change the map : click on the green buttons with a black cross to zoom in, on the green button with a dash to zoom out, or on the green arrows for adjacent maps.


METAR-TAF: